CheckWX is a tool to help pilots better visualize weather data.  It is not intended as a substitute for an official pre-flight weather briefing.

16:06:50 UTC

KSYI METAR
Bomar Field-Shelbyville Municipal Airport
Shelbyville, Tennessee, USA
Current

32 mins ago

KSYI 261535Z AUTO 23014KT 10SM CLR 30/18 A3017 RMK A01
Observed
May-26 @ 15:35 UTC
Wind
  • 230° at 14 KTS
Visibility
10 SM
Flight Rules
VFR
Cloud Levels
  • Clear skies
Temperature
30°C / 86°F
Dewpoint
18°C / 64°F
Heat Index
31°C / 88°F
Humidity
49%
Altimeter
30.17" Hg
Pressure
1021.72 hPa
Previous

52 mins ago

KSYI 261515Z AUTO 22007KT 10SM CLR 30/19 A3016 RMK A01
Observed
May-26 @ 15:15 UTC
Wind
  • 220° at 7 KTS
Visibility
10 SM
Flight Rules
VFR
Cloud Levels
  • Clear skies
Temperature
30°C / 86°F
Dewpoint
19°C / 66°F
Heat Index
31°C / 88°F
Humidity
52%
Altimeter
30.16" Hg
Pressure
1021.32 hPa
Previous

1 hour ago

KSYI 261455Z AUTO 25008KT 10SM CLR 29/19 A3017 RMK A01
Observed
May-26 @ 14:55 UTC
Wind
  • 250° at 8 KTS
Visibility
10 SM
Flight Rules
VFR
Cloud Levels
  • Clear skies
Temperature
29°C / 84°F
Dewpoint
19°C / 66°F
Heat Index
30°C / 86°F
Humidity
55%
Altimeter
30.17" Hg
Pressure
1021.72 hPa